Terminal Aerodrome Forecast
Issued by NWS Amarillo, TX

Home | Current Version | Previous Version | Text Only | Print | Product List | Glossary On
Versions: 1 2 3 4 5 6 7 8 9 10 11
000
FTUS44 KAMA 231122
TAFGUY
TAF
KGUY 231122Z 2312/2412 19008KT P6SM SKC
     FM231500 21014G24KT P6SM SCT250
     FM240100 19008KT P6SM BKN250=

USA.gov is the U.S. government's official web portal to all federal, state and local government web resources and services.